Time;durP1;ratioP1;P1;durP2;ratioP2;P2;SDS_P1;SDS_P2;PMS_P1;PMS_P2;Temp;Humidity;BMP_temperature;BMP_pressure;BME280_temperature;BME280_humidity;BME280_pressure;Samples;Min_cycle;Max_cycle;Signal;HPM_P1;HPM_P2
2022/06/23 00:01:50;;;;;;;13.82;10.30;;;;;;;;;;5051740;28;20131;-70
2022/06/23 00:04:21;;;;;;;13.75;10.05;;;;;;;;;;5051382;28;20060;-71
2022/06/23 00:06:53;;;;;;;17.45;9.63;;;;;;;;;;5052530;28;20033;-71
2022/06/23 00:09:34;;;;;;;15.13;9.98;;;;;;;;;;5053864;28;20056;-71
2022/06/23 00:12:11;;;;;;;21.35;11.68;;;;;;;;;;5051622;28;20083;-71
2022/06/23 00:14:37;;;;;;;15.85;11.40;;;;;;;;;;5047136;28;20057;-71
2022/06/23 00:17:24;;;;;;;20.15;12.30;;;;;;;;;;5046721;28;20071;-72
2022/06/23 00:19:49;;;;;;;22.77;12.60;;;;;;;;;;5048857;28;20119;-71
2022/06/23 00:22:18;;;;;;;15.43;12.43;;;;;;;;;;5048517;28;20135;-71
2022/06/23 00:24:48;;;;;;;20.65;13.82;;;;;;;;;;5048797;28;20419;-71
2022/06/23 00:27:17;;;;;;;17.33;13.27;;;;;;;;;;5047259;28;20036;-71
2022/06/23 00:29:45;;;;;;;26.90;13.70;;;;;;;;;;5047651;28;20025;-71
2022/06/23 00:32:12;;;;;;;21.98;13.02;;;;;;;;;;5048868;28;20043;-71
2022/06/23 00:34:40;;;;;;;16.83;13.27;;;;;;;;;;5047661;28;20036;-71
2022/06/23 00:37:09;;;;;;;19.77;13.35;;;;;;;;;;5044659;28;20028;-71
2022/06/23 00:39:48;;;;;;;16.95;12.95;;;;;;;;;;5048884;28;20108;-71
2022/06/23 00:42:37;;;;;;;25.98;13.23;;;;;;;;;;5048178;28;20041;-71
2022/06/23 00:45:40;;;;;;;20.88;12.45;;;;;;;;;;5043741;28;20468;-71
2022/06/23 00:48:23;;;;;;;20.80;13.23;;;;;;;;;;5048577;28;20036;-71
2022/06/23 00:50:58;;;;;;;21.85;13.70;;;;;;;;;;5044504;28;20036;-71
2022/06/23 00:53:37;;;;;;;23.25;15.27;;;;;;;;;;5046076;28;20041;-72
2022/06/23 00:56:11;;;;;;;21.80;14.00;;;;;;;;;;5047254;28;20519;-72
2022/06/23 00:58:56;;;;;;;21.80;13.23;;;;;;;;;;5048265;28;20075;-71
2022/06/23 01:01:24;;;;;;;28.98;14.57;;;;;;;;;;5045226;28;20044;-71
2022/06/23 01:04:03;;;;;;;25.13;13.73;;;;;;;;;;5044583;28;20037;-70
2022/06/23 01:06:41;;;;;;;20.80;13.43;;;;;;;;;;5048058;28;20365;-71
2022/06/23 01:09:31;;;;;;;21.00;12.82;;;;;;;;;;5044790;28;20111;-70
2022/06/23 01:12:47;;;;;;;24.92;13.48;;;;;;;;;;5045508;28;20655;-71
2022/06/23 01:15:33;;;;;;;26.90;13.60;;;;;;;;;;5024967;28;20120;-71
2022/06/23 01:18:09;;;;;;;22.23;13.65;;;;;;;;;;5045843;28;20039;-72
2022/06/23 01:20:44;;;;;;;22.63;13.48;;;;;;;;;;5046401;28;20111;-71
2022/06/23 01:23:32;;;;;;;24.30;13.90;;;;;;;;;;5047932;28;20036;-72
2022/06/23 01:26:40;;;;;;;20.70;14.20;;;;;;;;;;5044125;28;20167;-71
2022/06/23 01:29:27;;;;;;;23.10;14.63;;;;;;;;;;5038880;28;20041;-71
2022/06/23 01:32:07;;;;;;;22.00;14.95;;;;;;;;;;5047618;28;20029;-71
2022/06/23 01:35:03;;;;;;;19.25;14.38;;;;;;;;;;5047918;28;20025;-71
2022/06/23 01:37:38;;;;;;;26.42;14.02;;;;;;;;;;5047075;28;20175;-71
2022/06/23 01:40:09;;;;;;;23.08;14.65;;;;;;;;;;5046400;28;20025;-71
2022/06/23 01:42:38;;;;;;;22.80;14.30;;;;;;;;;;5047286;28;20032;-71
2022/06/23 01:45:15;;;;;;;;;;;;;;;;;;5046076;28;20051;-71
2022/06/23 01:47:50;;;;;;;26.75;14.55;;;;;;;;;;5046580;28;20379;-71
2022/06/23 01:50:40;;;;;;;24.23;14.15;;;;;;;;;;5047491;28;20442;-71
2022/06/23 01:53:13;;;;;;;22.67;13.68;;;;;;;;;;5045342;28;20036;-71
2022/06/23 01:56:13;;;;;;;28.60;15.48;;;;;;;;;;5047054;28;20033;-71
2022/06/23 01:58:43;;;;;;;19.95;13.43;;;;;;;;;;5047559;28;20037;-71
2022/06/23 02:01:17;;;;;;;22.23;14.65;;;;;;;;;;5044571;28;20032;-71
2022/06/23 02:03:47;;;;;;;22.48;14.57;;;;;;;;;;5043025;28;20041;-71
2022/06/23 02:06:30;;;;;;;22.88;13.98;;;;;;;;;;5046987;28;20032;-71
2022/06/23 02:09:06;;;;;;;21.40;14.10;;;;;;;;;;5036757;28;20493;-71
2022/06/23 02:11:43;;;;;;;23.58;15.23;;;;;;;;;;5043701;28;20086;-71
2022/06/23 02:14:38;;;;;;;22.67;14.10;;;;;;;;;;5046696;28;20037;-71
2022/06/23 02:17:25;;;;;;;24.67;14.73;;;;;;;;;;5045118;28;20439;-71
2022/06/23 02:19:55;;;;;;;21.40;15.52;;;;;;;;;;5045391;28;20100;-71
2022/06/23 02:22:34;;;;;;;21.05;14.50;;;;;;;;;;5046884;28;20040;-71
2022/06/23 02:25:03;;;;;;;27.58;15.13;;;;;;;;;;5047008;28;20072;-72
2022/06/23 02:27:37;;;;;;;19.80;14.25;;;;;;;;;;5043172;28;20124;-71
2022/06/23 02:30:11;;;;;;;21.85;14.38;;;;;;;;;;5045577;28;20056;-71
2022/06/23 02:32:57;;;;;;;23.77;16.67;;;;;;;;;;5046325;28;20164;-71
2022/06/23 02:35:30;;;;;;;25.52;16.60;;;;;;;;;;5044419;28;20040;-71
2022/06/23 02:38:18;;;;;;;31.92;15.88;;;;;;;;;;5045555;28;20061;-71
2022/06/23 02:40:46;;;;;;;30.20;15.85;;;;;;;;;;5046479;28;20075;-71
2022/06/23 02:43:19;;;;;;;24.52;15.93;;;;;;;;;;5046334;28;20051;-71
2022/06/23 02:46:06;;;;;;;22.92;16.17;;;;;;;;;;5044721;28;20108;-71
2022/06/23 02:48:56;;;;;;;24.50;16.27;;;;;;;;;;5045638;28;20428;-71
2022/06/23 02:51:56;;;;;;;30.77;17.05;;;;;;;;;;5045821;28;20569;-71
2022/06/23 02:54:55;;;;;;;24.10;16.02;;;;;;;;;;5046399;28;20461;-71
2022/06/23 02:57:32;;;;;;;22.88;15.85;;;;;;;;;;5045907;28;20044;-71
2022/06/23 03:00:15;;;;;;;23.02;15.95;;;;;;;;;;5045924;28;20032;-71
2022/06/23 03:03:01;;;;;;;21.00;15.43;;;;;;;;;;5046745;28;20621;-71
2022/06/23 03:05:38;;;;;;;29.10;15.82;;;;;;;;;;5049220;28;20405;-68
2022/06/23 03:08:06;;;;;;;39.13;15.93;;;;;;;;;;5050452;28;20025;-68
2022/06/23 03:10:53;;;;;;;40.40;16.13;;;;;;;;;;5050127;28;20045;-68
2022/06/23 03:13:42;;;;;;;21.58;15.80;;;;;;;;;;5048030;28;20048;-67
2022/06/23 03:16:18;;;;;;;54.13;15.50;;;;;;;;;;5049246;28;20518;-67
2022/06/23 03:19:06;;;;;;;25.67;14.57;;;;;;;;;;5050252;28;20411;-68
2022/06/23 03:21:38;;;;;;;32.63;15.88;;;;;;;;;;5047553;28;20037;-68
2022/06/23 03:24:10;;;;;;;32.13;16.10;;;;;;;;;;5049723;28;20475;-68
2022/06/23 03:26:49;;;;;;;45.25;18.10;;;;;;;;;;5052609;28;20514;-68
2022/06/23 03:29:53;;;;;;;32.00;16.38;;;;;;;;;;5047415;28;20475;-68
2022/06/23 03:32:24;;;;;;;29.10;16.52;;;;;;;;;;5039654;28;20492;-68
2022/06/23 03:35:00;;;;;;;25.38;17.20;;;;;;;;;;5050291;28;20107;-68
2022/06/23 03:37:46;;;;;;;28.98;16.73;;;;;;;;;;5050829;28;20037;-70
2022/06/23 03:43:28;;;;;;;17.25;15.38;;;;;;;;;;5049643;28;20033;-72
2022/06/23 03:46:18;;;;;;;21.95;14.70;;;;;;;;;;5018515;28;20045;-72
2022/06/23 03:48:51;;;;;;;24.20;14.82;;;;;;;;;;5049526;28;20088;-71
2022/06/23 03:51:28;;;;;;;20.40;15.27;;;;;;;;;;5049777;28;20040;-72
2022/06/23 03:54:04;;;;;;;17.80;14.25;;;;;;;;;;5045646;28;20040;-72
2022/06/23 03:56:53;;;;;;;19.00;14.73;;;;;;;;;;5049247;28;20039;-72
2022/06/23 03:59:27;;;;;;;59.13;16.38;;;;;;;;;;5049716;28;20035;-71
2022/06/23 04:01:56;;;;;;;30.65;14.82;;;;;;;;;;5047524;28;20174;-72
2022/06/23 04:04:24;;;;;;;27.33;16.37;;;;;;;;;;5047436;28;20404;-71
2022/06/23 04:06:52;;;;;;;257.70;20.17;;;;;;;;;;5049426;28;20044;-71
2022/06/23 04:09:27;;;;;;;193.55;21.63;;;;;;;;;;5047204;28;20037;-71
2022/06/23 04:12:04;;;;;;;124.35;18.75;;;;;;;;;;5044157;28;20695;-71
2022/06/23 04:14:33;;;;;;;112.60;18.50;;;;;;;;;;5045198;28;20074;-70
2022/06/23 04:17:20;;;;;;;36.40;17.73;;;;;;;;;;5046628;28;20492;-71
2022/06/23 04:19:51;;;;;;;24.85;16.05;;;;;;;;;;5049031;28;20056;-73
2022/06/23 04:22:25;;;;;;;24.45;16.13;;;;;;;;;;5046332;28;20044;-70
2022/06/23 04:24:55;;;;;;;24.08;15.77;;;;;;;;;;5048294;28;20373;-71
2022/06/23 04:27:31;;;;;;;147.35;18.40;;;;;;;;;;5048520;28;20484;-72
2022/06/23 04:29:58;;;;;;;28.80;17.58;;;;;;;;;;5042559;28;20043;-71
2022/06/23 04:32:31;;;;;;;21.88;15.27;;;;;;;;;;5047505;28;20024;-72
2022/06/23 04:35:20;;;;;;;25.40;15.68;;;;;;;;;;5045397;28;20036;-71
2022/06/23 04:38:08;;;;;;;106.07;16.25;;;;;;;;;;5046404;28;20098;-71
2022/06/23 04:40:42;;;;;;;186.10;17.65;;;;;;;;;;5048474;28;20033;-71
2022/06/23 04:43:19;;;;;;;53.30;14.43;;;;;;;;;;5048254;28;20040;-71
2022/06/23 04:45:54;;;;;;;98.28;14.82;;;;;;;;;;5045721;28;20037;-72
2022/06/23 04:48:29;;;;;;;86.57;14.13;;;;;;;;;;5046958;28;20044;-71
2022/06/23 04:51:06;;;;;;;64.55;11.95;;;;;;;;;;5045568;28;20044;-72
2022/06/23 04:53:35;;;;;;;35.17;12.10;;;;;;;;;;5047543;28;20048;-71
2022/06/23 04:56:13;;;;;;;123.03;13.75;;;;;;;;;;5046565;28;20461;-72
2022/06/23 04:59:01;;;;;;;110.88;14.23;;;;;;;;;;5047827;28;20091;-72
2022/06/23 05:01:37;;;;;;;160.88;14.65;;;;;;;;;;5047758;28;20025;-71
2022/06/23 05:04:05;;;;;;;69.57;14.02;;;;;;;;;;5044170;28;20035;-72
2022/06/23 05:06:41;;;;;;;55.47;13.80;;;;;;;;;;5047045;28;20662;-72
2022/06/23 05:09:28;;;;;;;72.38;16.02;;;;;;;;;;5046560;28;20562;-72
2022/06/23 05:12:01;;;;;;;38.30;13.07;;;;;;;;;;5045122;28;20566;-71
2022/06/23 05:14:41;;;;;;;29.92;13.43;;;;;;;;;;5047291;28;20031;-72
2022/06/23 05:17:16;;;;;;;38.95;13.80;;;;;;;;;;5046348;28;20680;-71
2022/06/23 05:19:42;;;;;;;156.35;15.57;;;;;;;;;;5047042;28;20035;-71
2022/06/23 05:22:32;;;;;;;76.82;12.73;;;;;;;;;;5047752;28;20029;-71
2022/06/23 05:25:06;;;;;;;53.55;13.23;;;;;;;;;;5045538;28;20025;-71
2022/06/23 05:27:34;;;;;;;35.08;11.70;;;;;;;;;;5047403;28;20033;-71
2022/06/23 05:30:13;;;;;;;16.95;11.07;;;;;;;;;;5045543;28;20029;-71
2022/06/23 05:32:48;;;;;;;12.95;10.57;;;;;;;;;;5046526;28;20028;-72
2022/06/23 05:35:29;;;;;;;24.55;10.65;;;;;;;;;;5046834;28;20048;-71
2022/06/23 05:38:07;;;;;;;15.82;11.30;;;;;;;;;;5046513;28;20033;-72
2022/06/23 05:40:53;;;;;;;19.00;10.35;;;;;;;;;;5047285;28;20048;-71
2022/06/23 05:43:20;;;;;;;11.20;9.70;;;;;;;;;;5045631;28;20036;-72
2022/06/23 05:45:49;;;;;;;13.73;9.85;;;;;;;;;;5046987;28;20029;-71
2022/06/23 05:48:24;;;;;;;9.98;8.98;;;;;;;;;;5044779;28;20061;-72
2022/06/23 05:50:56;;;;;;;11.77;9.63;;;;;;;;;;5047000;28;20040;-71
2022/06/23 05:53:29;;;;;;;9.80;8.68;;;;;;;;;;5044087;28;20610;-71
2022/06/23 05:56:11;;;;;;;9.75;8.13;;;;;;;;;;5044579;28;20032;-71
2022/06/23 05:58:55;;;;;;;8.93;7.70;;;;;;;;;;5047055;28;20441;-71
2022/06/23 06:01:24;;;;;;;11.77;8.30;;;;;;;;;;5046185;28;20094;-71
2022/06/23 06:04:10;;;;;;;13.57;8.13;;;;;;;;;;5044659;28;20044;-71
2022/06/23 06:06:36;;;;;;;8.02;7.22;;;;;;;;;;5047183;28;20036;-71
2022/06/23 06:11:55;;;;;;;8.02;7.30;;;;;;;;;;5045482;28;20446;-71
2022/06/23 06:14:27;;;;;;;9.20;7.15;;;;;;;;;;5045464;28;20120;-68
2022/06/23 06:16:53;;;;;;;11.77;7.60;;;;;;;;;;5046182;28;20037;-70
2022/06/23 06:19:22;;;;;;;15.48;8.00;;;;;;;;;;5047077;28;20040;-70
2022/06/23 06:21:52;;;;;;;10.48;7.65;;;;;;;;;;5045503;28;20036;-70
2022/06/23 06:24:22;;;;;;;8.35;7.22;;;;;;;;;;5045125;28;20067;-71
2022/06/23 06:26:52;;;;;;;9.98;6.95;;;;;;;;;;5046321;28;20614;-71
2022/06/23 06:29:20;;;;;;;9.73;6.93;;;;;;;;;;5046502;28;20044;-71
2022/06/23 06:32:02;;;;;;;8.38;6.38;;;;;;;;;;5044502;28;20119;-71
2022/06/23 06:34:42;;;;;;;7.13;6.53;;;;;;;;;;5048063;28;20517;-71
2022/06/23 06:37:11;;;;;;;7.90;7.05;;;;;;;;;;5048367;28;20031;-70
2022/06/23 06:39:40;;;;;;;7.65;6.40;;;;;;;;;;5050308;28;20063;-70
2022/06/23 06:42:06;;;;;;;10.68;6.80;;;;;;;;;;5055452;28;20111;-69
2022/06/23 06:44:35;;;;;;;8.93;6.63;;;;;;;;;;5050556;28;20139;-69
2022/06/23 06:47:00;;;;;;;10.65;7.32;;;;;;;;;;5052028;28;20036;-69
2022/06/23 06:49:29;;;;;;;10.15;6.95;;;;;;;;;;5051149;28;20039;-70
2022/06/23 06:51:56;;;;;;;12.90;7.53;;;;;;;;;;5049962;28;20083;-69
2022/06/23 06:54:29;;;;;;;9.90;6.75;;;;;;;;;;5047371;28;20511;-69
2022/06/23 06:56:57;;;;;;;7.28;6.63;;;;;;;;;;5052791;28;20048;-69
2022/06/23 06:59:43;;;;;;;12.68;6.20;;;;;;;;;;5051190;28;20045;-69
2022/06/23 07:02:27;;;;;;;9.98;6.22;;;;;;;;;;5052174;28;20130;-70
2022/06/23 07:05:01;;;;;;;9.13;6.78;;;;;;;;;;5050554;28;20033;-69
2022/06/23 07:07:34;;;;;;;10.15;6.93;;;;;;;;;;5049267;28;20029;-69
2022/06/23 07:10:16;;;;;;;11.52;6.60;;;;;;;;;;5051534;28;20156;-69
2022/06/23 07:12:48;;;;;;;10.13;6.57;;;;;;;;;;5050347;28;20037;-70
2022/06/23 07:15:39;;;;;;;11.85;6.88;;;;;;;;;;5047480;28;20462;-70
2022/06/23 07:18:34;;;;;;;8.02;6.93;;;;;;;;;;5006421;28;20080;-70
2022/06/23 07:21:19;;;;;;;8.63;6.40;;;;;;;;;;5000642;28;20049;-69
2022/06/23 07:24:02;;;;;;;9.25;6.30;;;;;;;;;;5007432;28;20041;-69
2022/06/23 07:26:47;;;;;;;9.00;6.88;;;;;;;;;;5009961;28;20040;-69
2022/06/23 07:29:27;;;;;;;9.73;6.40;;;;;;;;;;5005389;28;20084;-69
2022/06/23 07:32:19;;;;;;;9.95;6.50;;;;;;;;;;5007057;28;20462;-69
2022/06/23 07:34:51;;;;;;;10.30;6.07;;;;;;;;;;5006658;28;20133;-69
2022/06/23 07:37:31;;;;;;;15.23;6.82;;;;;;;;;;5003061;28;20030;-69
2022/06/23 07:40:04;;;;;;;10.00;6.60;;;;;;;;;;5010123;28;20670;-70
2022/06/23 07:42:47;;;;;;;10.60;6.57;;;;;;;;;;5003705;28;20061;-69
2022/06/23 07:45:26;;;;;;;13.25;6.13;;;;;;;;;;5009237;28;20588;-70
2022/06/23 07:47:52;;;;;;;10.35;6.47;;;;;;;;;;5006873;28;20118;-70
2022/06/23 07:50:18;;;;;;;8.93;5.90;;;;;;;;;;5002228;28;20176;-69
2022/06/23 07:52:44;;;;;;;10.38;5.90;;;;;;;;;;5001905;28;20053;-69
2022/06/23 07:55:20;;;;;;;9.05;5.68;;;;;;;;;;5027726;28;20080;-69
2022/06/23 07:57:46;;;;;;;9.95;5.70;;;;;;;;;;5049197;28;20087;-70
2022/06/23 08:00:13;;;;;;;13.90;6.15;;;;;;;;;;5048370;28;20037;-70
2022/06/23 08:02:45;;;;;;;9.52;5.60;;;;;;;;;;5044278;28;20069;-70
2022/06/23 08:05:26;;;;;;;9.90;6.18;;;;;;;;;;5048540;28;20040;-70
2022/06/23 08:07:52;;;;;;;11.27;5.72;;;;;;;;;;5047364;28;20068;-69
2022/06/23 08:10:26;;;;;;;9.82;6.18;;;;;;;;;;5047262;28;20119;-70
2022/06/23 08:13:04;;;;;;;8.13;5.65;;;;;;;;;;5045850;28;20045;-69
2022/06/23 08:18:43;;;;;;;12.15;5.80;;;;;;;;;;5046034;28;20079;-69
2022/06/23 08:21:14;;;;;;;13.63;5.80;;;;;;;;;;5048361;28;20033;-69
2022/06/23 08:23:51;;;;;;;9.35;5.68;;;;;;;;;;5047080;28;20099;-69
2022/06/23 08:26:19;;;;;;;13.25;6.07;;;;;;;;;;5047633;28;20516;-69
2022/06/23 08:28:49;;;;;;;13.38;6.20;;;;;;;;;;5046976;28;20025;-69
2022/06/23 08:31:14;;;;;;;14.45;6.82;;;;;;;;;;5048316;28;20043;-69
2022/06/23 08:33:40;;;;;;;13.30;5.78;;;;;;;;;;5048064;28;20029;-70
2022/06/23 08:36:11;;;;;;;12.10;5.82;;;;;;;;;;5046459;28;20467;-70
2022/06/23 08:38:46;;;;;;;13.63;5.80;;;;;;;;;;5047923;28;20041;-69
2022/06/23 08:41:19;;;;;;;14.27;5.72;;;;;;;;;;5046550;28;20110;-69
2022/06/23 08:44:08;;;;;;;10.40;5.93;;;;;;;;;;5044788;28;20033;-69
2022/06/23 08:46:39;;;;;;;9.85;6.05;;;;;;;;;;5047417;28;20056;-69
2022/06/23 08:49:19;;;;;;;14.05;5.88;;;;;;;;;;5048402;28;20598;-69
2022/06/23 08:51:56;;;;;;;8.40;5.60;;;;;;;;;;5042561;28;20064;-69
2022/06/23 08:54:44;;;;;;;8.98;5.53;;;;;;;;;;5046370;28;20069;-69
2022/06/23 08:57:26;;;;;;;9.70;5.60;;;;;;;;;;5044932;28;20116;-69
2022/06/23 09:00:06;;;;;;;11.20;6.00;;;;;;;;;;5047124;28;20045;-69
2022/06/23 09:02:53;;;;;;;12.80;5.60;;;;;;;;;;5048240;28;20090;-70
2022/06/23 09:05:34;;;;;;;9.88;5.68;;;;;;;;;;5047639;28;20082;-70
2022/06/23 09:08:11;;;;;;;9.10;5.20;;;;;;;;;;5047293;28;20029;-69
2022/06/23 09:10:55;;;;;;;11.05;5.70;;;;;;;;;;5049529;28;20098;-69
2022/06/23 09:13:26;;;;;;;10.93;5.13;;;;;;;;;;5048346;28;20408;-70
2022/06/23 09:16:17;;;;;;;10.40;5.53;;;;;;;;;;5043227;28;20083;-70
2022/06/23 09:19:07;;;;;;;7.18;5.43;;;;;;;;;;5050589;28;20124;-69
2022/06/23 09:21:54;;;;;;;10.10;6.20;;;;;;;;;;5048422;28;20044;-70
2022/06/23 09:24:52;;;;;;;10.07;6.07;;;;;;;;;;5044627;28;20523;-69
2022/06/23 09:27:30;;;;;;;9.15;5.28;;;;;;;;;;5047957;28;20708;-69
2022/06/23 09:30:05;;;;;;;10.98;5.25;;;;;;;;;;5040587;28;20033;-69
2022/06/23 09:32:57;;;;;;;13.55;5.70;;;;;;;;;;5047241;28;20041;-70
2022/06/23 09:35:23;;;;;;;10.07;4.90;;;;;;;;;;5047782;28;20167;-70
2022/06/23 09:38:17;;;;;;;9.70;5.32;;;;;;;;;;5045621;28;20116;-70
2022/06/23 09:40:55;;;;;;;6.85;4.68;;;;;;;;;;5048582;28;20033;-69
2022/06/23 09:43:46;;;;;;;6.15;4.45;;;;;;;;;;5045825;28;20029;-69
2022/06/23 09:46:23;;;;;;;10.77;5.32;;;;;;;;;;5047813;28;20037;-70
2022/06/23 09:49:10;;;;;;;8.35;5.07;;;;;;;;;;5042444;28;20063;-73
2022/06/23 09:52:24;;;;;;;10.48;5.40;;;;;;;;;;5047154;28;20040;-69
2022/06/23 09:54:59;;;;;;;7.82;4.97;;;;;;;;;;5036421;28;20045;-70
2022/06/23 09:58:17;;;;;;;8.35;5.10;;;;;;;;;;5049245;28;20061;-70
2022/06/23 10:00:58;;;;;;;8.23;5.00;;;;;;;;;;5006299;28;20064;-70
2022/06/23 10:03:42;;;;;;;10.20;4.68;;;;;;;;;;5003571;28;20048;-70
2022/06/23 10:06:13;;;;;;;8.18;4.93;;;;;;;;;;4997420;28;20069;-70
2022/06/23 10:08:45;;;;;;;9.65;5.15;;;;;;;;;;5001990;28;20045;-70
2022/06/23 10:11:35;;;;;;;12.00;5.60;;;;;;;;;;5013945;28;20041;-70
2022/06/23 10:14:11;;;;;;;12.57;4.80;;;;;;;;;;4997467;28;20509;-70
2022/06/23 10:17:01;;;;;;;6.95;4.82;;;;;;;;;;5007539;28;20126;-70
2022/06/23 10:19:47;;;;;;;11.43;5.20;;;;;;;;;;5004194;28;20428;-70
2022/06/23 10:22:30;;;;;;;11.38;5.75;;;;;;;;;;5001448;28;20045;-70
2022/06/23 10:25:19;;;;;;;8.70;5.00;;;;;;;;;;4993400;28;20042;-69
2022/06/23 10:27:47;;;;;;;;;;;;;;;;;;5006930;28;20055;-70
2022/06/23 10:30:15;;;;;;;8.90;4.35;;;;;;;;;;5003977;28;19921;-70
2022/06/23 10:33:23;;;;;;;11.60;4.85;;;;;;;;;;5047113;28;20052;-70
2022/06/23 10:36:22;;;;;;;7.55;4.75;;;;;;;;;;5042846;28;20045;-70
2022/06/23 10:39:06;;;;;;;5.85;4.20;;;;;;;;;;5046737;28;20120;-70
2022/06/23 10:41:50;;;;;;;7.20;4.20;;;;;;;;;;5046273;28;20051;-69
2022/06/23 10:44:33;;;;;;;9.40;4.40;;;;;;;;;;5040075;28;20098;-69
2022/06/23 10:47:19;;;;;;;8.10;4.13;;;;;;;;;;5045823;28;20585;-70
2022/06/23 10:50:10;;;;;;;11.13;4.82;;;;;;;;;;5046144;28;20033;-70
2022/06/23 10:52:45;;;;;;;7.95;4.25;;;;;;;;;;5044557;28;20025;-69
2022/06/23 10:55:17;;;;;;;8.32;4.53;;;;;;;;;;5046310;28;20056;-69
2022/06/23 10:57:59;;;;;;;8.40;4.75;;;;;;;;;;5046286;28;20046;-69
2022/06/23 11:00:54;;;;;;;7.97;4.40;;;;;;;;;;5043447;28;20080;-69
2022/06/23 11:03:38;;;;;;;10.95;4.60;;;;;;;;;;5045620;28;20124;-70
2022/06/23 11:06:36;;;;;;;12.70;5.10;;;;;;;;;;5044773;28;20041;-69
2022/06/23 11:09:19;;;;;;;8.18;4.85;;;;;;;;;;5041697;28;20596;-69
2022/06/23 11:12:06;;;;;;;5.60;4.53;;;;;;;;;;5046305;28;20041;-69
2022/06/23 11:15:10;;;;;;;10.15;5.18;;;;;;;;;;5045056;28;20045;-69
2022/06/23 11:17:47;;;;;;;6.18;4.72;;;;;;;;;;5035452;28;20496;-70
2022/06/23 11:20:56;;;;;;;8.57;4.90;;;;;;;;;;5044667;28;20040;-69
2022/06/23 11:23:37;;;;;;;7.65;4.88;;;;;;;;;;4996381;28;20398;-70
2022/06/23 11:26:24;;;;;;;8.32;5.43;;;;;;;;;;5044708;28;20416;-70
2022/06/23 11:28:56;;;;;;;8.63;4.82;;;;;;;;;;5048003;28;20588;-69
2022/06/23 11:31:53;;;;;;;10.20;5.55;;;;;;;;;;5046606;28;20086;-69
2022/06/23 11:34:52;;;;;;;10.93;5.35;;;;;;;;;;5046088;28;20718;-70
2022/06/23 11:37:51;;;;;;;11.25;5.28;;;;;;;;;;5045335;28;20037;-69
2022/06/23 11:40:45;;;;;;;7.30;5.30;;;;;;;;;;5048152;28;20115;-70
2022/06/23 11:43:34;;;;;;;9.07;5.20;;;;;;;;;;5044314;28;20116;-69
2022/06/23 11:46:48;;;;;;;9.82;5.03;;;;;;;;;;5047800;28;20120;-70
2022/06/23 11:49:32;;;;;;;8.18;5.28;;;;;;;;;;4965718;28;20046;-70
2022/06/23 11:52:40;;;;;;;9.77;5.50;;;;;;;;;;4964738;28;20050;-70
2022/06/23 11:55:39;;;;;;;11.57;4.95;;;;;;;;;;4958764;28;20042;-70
2022/06/23 11:58:18;;;;;;;8.07;5.30;;;;;;;;;;4962351;28;20190;-70
2022/06/23 12:00:57;;;;;;;9.82;5.47;;;;;;;;;;4965476;28;20461;-70
2022/06/23 12:03:48;;;;;;;9.63;5.32;;;;;;;;;;4971422;28;20046;-69
2022/06/23 12:06:45;;;;;;;11.40;5.20;;;;;;;;;;4964739;28;20230;-70
2022/06/23 12:09:25;;;;;;;10.20;5.82;;;;;;;;;;4966794;28;20050;-69
2022/06/23 12:11:51;;;;;;;8.13;4.95;;;;;;;;;;4963504;28;20049;-69
2022/06/23 12:14:18;;;;;;;11.07;5.20;;;;;;;;;;4965946;28;20102;-69
2022/06/23 12:17:05;;;;;;;9.85;5.45;;;;;;;;;;4965449;28;20135;-69
2022/06/23 12:20:06;;;;;;;7.13;5.13;;;;;;;;;;4965269;28;20042;-70
2022/06/23 12:22:33;;;;;;;8.10;5.47;;;;;;;;;;4975543;28;20049;-70
2022/06/23 12:25:08;;;;;;;9.70;5.57;;;;;;;;;;5042748;28;20043;-70
2022/06/23 12:28:04;;;;;;;13.20;6.20;;;;;;;;;;5045331;28;20029;-70
2022/06/23 12:30:38;;;;;;;7.60;5.40;;;;;;;;;;5047633;28;20041;-68
2022/06/23 12:33:47;;;;;;;12.85;5.80;;;;;;;;;;5046523;28;20032;-69
2022/06/23 12:36:24;;;;;;;10.25;5.47;;;;;;;;;;5002938;28;20048;-71
2022/06/23 12:38:56;;;;;;;10.75;5.65;;;;;;;;;;5004579;28;20042;-70
2022/06/23 12:41:33;;;;;;;10.65;6.18;;;;;;;;;;4999405;28;20129;-70
2022/06/23 12:44:21;;;;;;;9.57;5.82;;;;;;;;;;4997603;28;20071;-70
2022/06/23 12:47:01;;;;;;;9.73;5.90;;;;;;;;;;5003396;28;20069;-70
2022/06/23 12:49:52;;;;;;;10.15;6.05;;;;;;;;;;4999698;28;20599;-70
2022/06/23 12:52:44;;;;;;;10.07;6.00;;;;;;;;;;5001314;28;20141;-70
2022/06/23 12:55:15;;;;;;;9.55;6.00;;;;;;;;;;5000173;28;20085;-70
2022/06/23 12:58:05;;;;;;;8.52;5.75;;;;;;;;;;5003516;28;20093;-70
2022/06/23 13:00:34;;;;;;;9.15;5.78;;;;;;;;;;4997064;28;20120;-68
2022/06/23 13:03:13;;;;;;;8.77;5.60;;;;;;;;;;4999794;28;20118;-68
2022/06/23 13:05:46;;;;;;;8.23;5.88;;;;;;;;;;5001924;28;20085;-67
2022/06/23 13:08:22;;;;;;;10.20;6.38;;;;;;;;;;5001357;28;20033;-68
2022/06/23 13:11:01;;;;;;;9.07;6.13;;;;;;;;;;5002848;28;20045;-67
2022/06/23 13:13:40;;;;;;;8.10;5.80;;;;;;;;;;5045249;28;20541;-68
2022/06/23 13:16:20;;;;;;;8.35;5.30;;;;;;;;;;5044999;28;20514;-68
2022/06/23 13:18:50;;;;;;;9.18;5.50;;;;;;;;;;5045685;28;20041;-68
2022/06/23 13:21:19;;;;;;;10.25;5.85;;;;;;;;;;5040497;28;20041;-68
2022/06/23 13:23:54;;;;;;;7.68;5.80;;;;;;;;;;5045277;28;20037;-68
2022/06/23 13:26:24;;;;;;;8.30;5.70;;;;;;;;;;5041335;28;20045;-68
2022/06/23 13:29:01;;;;;;;7.63;5.80;;;;;;;;;;5046551;28;20029;-67
2022/06/23 13:32:00;;;;;;;8.13;5.93;;;;;;;;;;5045620;28;20056;-68
2022/06/23 13:34:33;;;;;;;9.43;6.00;;;;;;;;;;5044182;28;20033;-67
2022/06/23 13:37:24;;;;;;;9.00;5.70;;;;;;;;;;5047715;28;20087;-67
2022/06/23 13:40:15;;;;;;;12.35;6.35;;;;;;;;;;5045692;28;20033;-68
2022/06/23 13:42:51;;;;;;;12.05;6.00;;;;;;;;;;5037207;28;20060;-68
2022/06/23 13:45:31;;;;;;;9.23;5.88;;;;;;;;;;5040253;28;20127;-67
2022/06/23 13:48:08;;;;;;;14.60;5.78;;;;;;;;;;5044976;28;20028;-67
2022/06/23 13:50:41;;;;;;;10.80;5.95;;;;;;;;;;5047330;28;20057;-67
2022/06/23 13:53:18;;;;;;;6.75;6.03;;;;;;;;;;5042082;28;20661;-67
2022/06/23 13:55:56;;;;;;;13.60;6.07;;;;;;;;;;5045293;28;20665;-68
2022/06/23 13:58:28;;;;;;;13.17;6.80;;;;;;;;;;5044557;28;20033;-67
2022/06/23 14:01:07;;;;;;;8.65;6.10;;;;;;;;;;5047297;28;20295;-67
2022/06/23 14:03:50;;;;;;;15.00;6.25;;;;;;;;;;5044008;28;20688;-67
2022/06/23 14:06:28;;;;;;;9.05;6.15;;;;;;;;;;5047311;28;20506;-67
2022/06/23 14:09:03;;;;;;;12.25;5.70;;;;;;;;;;5053218;28;20044;-67
2022/06/23 14:11:42;;;;;;;10.40;5.93;;;;;;;;;;5049354;28;20028;-67
2022/06/23 14:14:18;;;;;;;11.13;6.07;;;;;;;;;;5047303;28;20111;-67
2022/06/23 14:16:57;;;;;;;11.32;6.45;;;;;;;;;;5047953;28;20370;-68
2022/06/23 14:19:49;;;;;;;9.18;6.13;;;;;;;;;;5050182;28;20116;-67
2022/06/23 14:22:28;;;;;;;10.75;6.40;;;;;;;;;;5054412;28;20033;-67
2022/06/23 14:25:04;;;;;;;11.10;6.80;;;;;;;;;;5048841;28;20036;-67
2022/06/23 14:27:39;;;;;;;14.20;6.90;;;;;;;;;;5046197;28;20093;-67
2022/06/23 14:30:13;;;;;;;8.38;6.47;;;;;;;;;;5049353;28;20033;-67
2022/06/23 14:32:52;;;;;;;10.88;6.85;;;;;;;;;;5052447;28;20090;-67
2022/06/23 14:35:33;;;;;;;10.60;6.68;;;;;;;;;;5046474;28;20400;-67
2022/06/23 14:38:25;;;;;;;9.63;6.25;;;;;;;;;;5048915;28;20037;-66
2022/06/23 14:41:12;;;;;;;12.75;5.72;;;;;;;;;;5045904;28;20476;-67
2022/06/23 14:43:38;;;;;;;7.35;5.43;;;;;;;;;;5046810;28;20033;-67
2022/06/23 14:46:16;;;;;;;7.55;5.25;;;;;;;;;;5045860;28;20040;-67
2022/06/23 14:49:03;;;;;;;9.68;5.30;;;;;;;;;;5045986;28;20040;-67
2022/06/23 14:51:36;;;;;;;10.47;5.53;;;;;;;;;;5049635;28;20033;-66
2022/06/23 14:54:06;;;;;;;8.38;5.05;;;;;;;;;;5046565;28;20509;-68
2022/06/23 14:56:51;;;;;;;10.80;6.05;;;;;;;;;;5046357;28;20179;-67
2022/06/23 14:59:39;;;;;;;10.25;5.50;;;;;;;;;;5050244;28;20118;-67
2022/06/23 15:02:15;;;;;;;10.40;5.80;;;;;;;;;;5050947;28;20032;-67
2022/06/23 15:04:53;;;;;;;11.43;5.90;;;;;;;;;;5046443;28;20029;-67
2022/06/23 15:07:40;;;;;;;8.73;5.80;;;;;;;;;;5048919;28;20036;-67
2022/06/23 15:10:22;;;;;;;13.00;6.00;;;;;;;;;;5049814;28;20074;-67
2022/06/23 15:13:18;;;;;;;9.23;6.10;;;;;;;;;;5047508;28;20064;-67
2022/06/23 15:16:03;;;;;;;14.40;5.82;;;;;;;;;;5050467;28;20037;-67
2022/06/23 15:18:36;;;;;;;10.35;5.70;;;;;;;;;;5050021;28;20130;-67
2022/06/23 15:24:19;;;;;;;10.48;6.15;;;;;;;;;;5048610;28;20041;-67
2022/06/23 15:26:58;;;;;;;9.73;5.32;;;;;;;;;;5049484;28;20053;-68
2022/06/23 15:29:35;;;;;;;11.15;5.93;;;;;;;;;;5048093;28;20043;-67
2022/06/23 15:32:11;;;;;;;8.88;5.85;;;;;;;;;;5050456;28;20044;-67
2022/06/23 15:34:51;;;;;;;7.65;6.40;;;;;;;;;;5049572;28;20044;-67
2022/06/23 15:37:43;;;;;;;9.15;6.40;;;;;;;;;;5046918;28;20678;-67
2022/06/23 15:40:30;;;;;;;8.45;6.18;;;;;;;;;;5048873;28;20028;-67
2022/06/23 15:43:16;;;;;;;12.43;5.60;;;;;;;;;;5046572;28;20095;-67
2022/06/23 15:46:05;;;;;;;8.52;5.82;;;;;;;;;;5047344;28;20036;-67
2022/06/23 15:48:50;;;;;;;11.10;6.45;;;;;;;;;;5049742;28;20032;-67
2022/06/23 15:51:32;;;;;;;10.45;6.32;;;;;;;;;;5048682;28;20037;-67
2022/06/23 15:54:01;;;;;;;9.73;6.22;;;;;;;;;;5047770;28;20041;-67
2022/06/23 15:56:35;;;;;;;11.77;7.00;;;;;;;;;;5049461;28;20033;-67